sensor_id;sensor_type;location;lat;lon;timestamp;temperature;humidity
18888;DHT22;9576;47.792;9.628;2023-03-01T00:00:42;-0.40;99.90
18888;DHT22;9576;47.792;9.628;2023-03-01T00:03:47;-0.30;99.90
18888;DHT22;9576;47.792;9.628;2023-03-01T00:06:49;-0.30;99.90
18888;DHT22;9576;47.792;9.628;2023-03-01T00:09:51;-0.30;99.90
18888;DHT22;9576;47.792;9.628;2023-03-01T00:12:53;-0.30;99.90
18888;DHT22;9576;47.792;9.628;2023-03-01T00:15:58;-0.30;99.90
18888;DHT22;9576;47.792;9.628;2023-03-01T00:19:00;-0.30;99.90
18888;DHT22;9576;47.792;9.628;2023-03-01T00:22:01;-0.20;99.90
18888;DHT22;9576;47.792;9.628;2023-03-01T00:25:04;-0.20;99.90
18888;DHT22;9576;47.792;9.628;2023-03-01T00:28:06;-0.20;99.90
18888;DHT22;9576;47.792;9.628;2023-03-01T00:31:11;-0.20;99.90
18888;DHT22;9576;47.792;9.628;2023-03-01T00:34:13;-0.20;99.90
18888;DHT22;9576;47.792;9.628;2023-03-01T00:37:15;-0.20;99.90
18888;DHT22;9576;47.792;9.628;2023-03-01T00:40:17;-0.20;99.90
18888;DHT22;9576;47.792;9.628;2023-03-01T00:43:19;-0.10;99.90
18888;DHT22;9576;47.792;9.628;2023-03-01T00:46:24;-0.10;99.90
18888;DHT22;9576;47.792;9.628;2023-03-01T00:49:25;-0.10;99.90
18888;DHT22;9576;47.792;9.628;2023-03-01T00:52:28;-0.10;99.90
18888;DHT22;9576;47.792;9.628;2023-03-01T00:55:30;-0.10;99.90
18888;DHT22;9576;47.792;9.628;2023-03-01T00:58:32;0.00;99.90
18888;DHT22;9576;47.792;9.628;2023-03-01T01:01:35;0.10;99.90
18888;DHT22;9576;47.792;9.628;2023-03-01T01:04:37;0.10;99.90
18888;DHT22;9576;47.792;9.628;2023-03-01T01:07:39;0.20;99.90
18888;DHT22;9576;47.792;9.628;2023-03-01T01:10:43;0.20;99.90
18888;DHT22;9576;47.792;9.628;2023-03-01T01:13:46;0.20;99.90
18888;DHT22;9576;47.792;9.628;2023-03-01T01:16:50;0.20;99.90
18888;DHT22;9576;47.792;9.628;2023-03-01T01:19:52;0.20;99.90
18888;DHT22;9576;47.792;9.628;2023-03-01T01:22:53;0.40;99.90
18888;DHT22;9576;47.792;9.628;2023-03-01T01:25:55;0.40;99.90
18888;DHT22;9576;47.792;9.628;2023-03-01T01:28:58;0.40;99.90
18888;DHT22;9576;47.792;9.628;2023-03-01T01:32:01;0.50;99.90
18888;DHT22;9576;47.792;9.628;2023-03-01T01:35:04;0.50;99.90
18888;DHT22;9576;47.792;9.628;2023-03-01T01:38:06;0.50;99.90
18888;DHT22;9576;47.792;9.628;2023-03-01T01:41:09;0.50;99.90
18888;DHT22;9576;47.792;9.628;2023-03-01T01:44:17;0.50;99.90
18888;DHT22;9576;47.792;9.628;2023-03-01T01:47:22;0.40;99.90
18888;DHT22;9576;47.792;9.628;2023-03-01T01:50:25;0.50;99.90
18888;DHT22;9576;47.792;9.628;2023-03-01T01:53:27;0.50;99.90
18888;DHT22;9576;47.792;9.628;2023-03-01T01:56:30;0.50;99.90
18888;DHT22;9576;47.792;9.628;2023-03-01T01:59:32;0.50;99.90
18888;DHT22;9576;47.792;9.628;2023-03-01T02:02:36;0.40;99.90
18888;DHT22;9576;47.792;9.628;2023-03-01T02:05:44;0.40;99.90
18888;DHT22;9576;47.792;9.628;2023-03-01T02:08:48;0.50;99.90
18888;DHT22;9576;47.792;9.628;2023-03-01T02:11:51;0.50;99.90
18888;DHT22;9576;47.792;9.628;2023-03-01T02:14:55;0.50;99.90
18888;DHT22;9576;47.792;9.628;2023-03-01T02:17:58;0.60;99.90
18888;DHT22;9576;47.792;9.628;2023-03-01T02:21:08;0.50;99.90
18888;DHT22;9576;47.792;9.628;2023-03-01T02:24:23;0.60;99.90
18888;DHT22;9576;47.792;9.628;2023-03-01T02:27:37;0.60;99.90
18888;DHT22;9576;47.792;9.628;2023-03-01T02:30:42;0.60;99.90
18888;DHT22;9576;47.792;9.628;2023-03-01T02:34:05;0.60;99.90
18888;DHT22;9576;47.792;9.628;2023-03-01T02:37:10;0.60;99.90
18888;DHT22;9576;47.792;9.628;2023-03-01T02:40:16;0.60;99.90
18888;DHT22;9576;47.792;9.628;2023-03-01T02:43:20;0.60;99.90
18888;DHT22;9576;47.792;9.628;2023-03-01T02:46:25;0.60;99.90
18888;DHT22;9576;47.792;9.628;2023-03-01T02:49:29;0.60;99.90
18888;DHT22;9576;47.792;9.628;2023-03-01T02:52:43;0.60;99.90
18888;DHT22;9576;47.792;9.628;2023-03-01T02:55:47;0.60;99.90
18888;DHT22;9576;47.792;9.628;2023-03-01T02:58:49;0.70;99.90
18888;DHT22;9576;47.792;9.628;2023-03-01T03:01:53;0.70;99.90
18888;DHT22;9576;47.792;9.628;2023-03-01T03:04:55;0.70;99.90
18888;DHT22;9576;47.792;9.628;2023-03-01T03:07:58;0.60;99.90
18888;DHT22;9576;47.792;9.628;2023-03-01T03:11:00;0.70;99.90
18888;DHT22;9576;47.792;9.628;2023-03-01T03:14:02;0.70;99.90
18888;DHT22;9576;47.792;9.628;2023-03-01T03:17:06;0.60;99.90
18888;DHT22;9576;47.792;9.628;2023-03-01T03:20:10;0.60;99.90
18888;DHT22;9576;47.792;9.628;2023-03-01T03:23:13;0.70;99.90
18888;DHT22;9576;47.792;9.628;2023-03-01T03:26:15;0.60;99.90
18888;DHT22;9576;47.792;9.628;2023-03-01T03:29:17;0.60;99.90
18888;DHT22;9576;47.792;9.628;2023-03-01T03:32:20;0.60;99.90
18888;DHT22;9576;47.792;9.628;2023-03-01T03:35:24;0.60;99.90
18888;DHT22;9576;47.792;9.628;2023-03-01T03:38:26;0.60;99.90
18888;DHT22;9576;47.792;9.628;2023-03-01T03:41:28;0.60;99.90
18888;DHT22;9576;47.792;9.628;2023-03-01T03:44:30;0.70;99.90
18888;DHT22;9576;47.792;9.628;2023-03-01T03:47:33;0.70;99.90
18888;DHT22;9576;47.792;9.628;2023-03-01T03:50:35;0.70;99.90
18888;DHT22;9576;47.792;9.628;2023-03-01T03:53:37;0.60;99.90
18888;DHT22;9576;47.792;9.628;2023-03-01T03:56:39;0.70;99.90
18888;DHT22;9576;47.792;9.628;2023-03-01T03:59:41;0.70;99.90
18888;DHT22;9576;47.792;9.628;2023-03-01T04:02:46;0.70;99.90
18888;DHT22;9576;47.792;9.628;2023-03-01T04:05:49;0.70;99.90
18888;DHT22;9576;47.792;9.628;2023-03-01T04:08:52;0.60;99.90
18888;DHT22;9576;47.792;9.628;2023-03-01T04:11:58;0.60;99.90
18888;DHT22;9576;47.792;9.628;2023-03-01T04:15:00;0.60;99.90
18888;DHT22;9576;47.792;9.628;2023-03-01T04:18:15;0.70;99.90
18888;DHT22;9576;47.792;9.628;2023-03-01T04:21:18;0.70;99.90
18888;DHT22;9576;47.792;9.628;2023-03-01T04:24:20;0.60;99.90
18888;DHT22;9576;47.792;9.628;2023-03-01T04:27:23;0.70;99.90
18888;DHT22;9576;47.792;9.628;2023-03-01T04:30:25;0.70;99.90
18888;DHT22;9576;47.792;9.628;2023-03-01T04:33:28;0.70;99.90
18888;DHT22;9576;47.792;9.628;2023-03-01T04:36:30;0.70;99.90
18888;DHT22;9576;47.792;9.628;2023-03-01T04:39:32;0.70;99.90
18888;DHT22;9576;47.792;9.628;2023-03-01T04:42:34;0.70;99.90
18888;DHT22;9576;47.792;9.628;2023-03-01T04:45:36;0.70;99.90
18888;DHT22;9576;47.792;9.628;2023-03-01T04:48:41;0.60;99.90
18888;DHT22;9576;47.792;9.628;2023-03-01T04:51:43;0.60;99.90
18888;DHT22;9576;47.792;9.628;2023-03-01T04:54:45;0.60;99.90
18888;DHT22;9576;47.792;9.628;2023-03-01T04:57:47;0.60;99.90
18888;DHT22;9576;47.792;9.628;2023-03-01T05:00:49;0.80;99.90
18888;DHT22;9576;47.792;9.628;2023-03-01T05:03:52;0.70;99.90
18888;DHT22;9576;47.792;9.628;2023-03-01T05:06:55;0.70;99.90
18888;DHT22;9576;47.792;9.628;2023-03-01T05:09:59;0.80;99.90
18888;DHT22;9576;47.792;9.628;2023-03-01T05:13:02;0.80;99.90
18888;DHT22;9576;47.792;9.628;2023-03-01T05:16:06;0.70;99.90
18888;DHT22;9576;47.792;9.628;2023-03-01T05:19:12;0.70;99.90
18888;DHT22;9576;47.792;9.628;2023-03-01T05:22:15;0.70;99.90
18888;DHT22;9576;47.792;9.628;2023-03-01T05:25:17;0.70;99.90
18888;DHT22;9576;47.792;9.628;2023-03-01T05:28:20;0.70;99.90
18888;DHT22;9576;47.792;9.628;2023-03-01T05:31:22;0.70;99.90
18888;DHT22;9576;47.792;9.628;2023-03-01T05:34:25;0.70;99.90
18888;DHT22;9576;47.792;9.628;2023-03-01T05:37:27;0.60;99.90
18888;DHT22;9576;47.792;9.628;2023-03-01T05:40:30;0.70;99.90
18888;DHT22;9576;47.792;9.628;2023-03-01T05:43:34;0.70;99.90
18888;DHT22;9576;47.792;9.628;2023-03-01T05:46:36;0.70;99.90
18888;DHT22;9576;47.792;9.628;2023-03-01T05:49:39;0.80;99.90
18888;DHT22;9576;47.792;9.628;2023-03-01T05:52:41;0.80;99.90
18888;DHT22;9576;47.792;9.628;2023-03-01T05:55:43;0.70;99.90
18888;DHT22;9576;47.792;9.628;2023-03-01T05:58:48;0.80;99.90
18888;DHT22;9576;47.792;9.628;2023-03-01T06:01:49;0.70;99.90
18888;DHT22;9576;47.792;9.628;2023-03-01T06:04:53;0.80;99.90
18888;DHT22;9576;47.792;9.628;2023-03-01T06:07:55;0.80;99.90
18888;DHT22;9576;47.792;9.628;2023-03-01T06:10:56;0.70;99.90
18888;DHT22;9576;47.792;9.628;2023-03-01T06:13:58;0.70;99.90
18888;DHT22;9576;47.792;9.628;2023-03-01T06:17:00;0.70;99.90
18888;DHT22;9576;47.792;9.628;2023-03-01T06:20:05;0.70;99.90
18888;DHT22;9576;47.792;9.628;2023-03-01T06:23:07;0.70;99.90
18888;DHT22;9576;47.792;9.628;2023-03-01T06:26:09;0.70;99.90
18888;DHT22;9576;47.792;9.628;2023-03-01T06:29:11;0.70;99.90
18888;DHT22;9576;47.792;9.628;2023-03-01T06:32:15;0.60;99.90
18888;DHT22;9576;47.792;9.628;2023-03-01T06:35:18;0.60;99.90
18888;DHT22;9576;47.792;9.628;2023-03-01T06:38:20;0.70;99.90
18888;DHT22;9576;47.792;9.628;2023-03-01T06:41:22;0.80;99.90
18888;DHT22;9576;47.792;9.628;2023-03-01T06:44:24;0.90;99.90
18888;DHT22;9576;47.792;9.628;2023-03-01T06:47:26;0.80;99.90
18888;DHT22;9576;47.792;9.628;2023-03-01T06:50:30;0.80;99.90
18888;DHT22;9576;47.792;9.628;2023-03-01T06:53:31;0.80;99.90
18888;DHT22;9576;47.792;9.628;2023-03-01T06:56:33;0.80;99.90
18888;DHT22;9576;47.792;9.628;2023-03-01T06:59:35;0.80;99.90
18888;DHT22;9576;47.792;9.628;2023-03-01T07:02:37;0.90;99.90
18888;DHT22;9576;47.792;9.628;2023-03-01T07:05:40;0.80;99.90
18888;DHT22;9576;47.792;9.628;2023-03-01T07:08:42;0.80;99.90
18888;DHT22;9576;47.792;9.628;2023-03-01T07:11:44;0.80;99.90
18888;DHT22;9576;47.792;9.628;2023-03-01T07:14:47;0.90;99.90
18888;DHT22;9576;47.792;9.628;2023-03-01T07:17:49;1.00;99.90
18888;DHT22;9576;47.792;9.628;2023-03-01T07:20:53;1.10;99.90
18888;DHT22;9576;47.792;9.628;2023-03-01T07:23:54;1.10;99.90
18888;DHT22;9576;47.792;9.628;2023-03-01T07:26:56;1.00;99.90
18888;DHT22;9576;47.792;9.628;2023-03-01T07:29:58;1.00;99.90
18888;DHT22;9576;47.792;9.628;2023-03-01T07:33:00;1.00;99.90
18888;DHT22;9576;47.792;9.628;2023-03-01T07:36:04;0.90;99.90
18888;DHT22;9576;47.792;9.628;2023-03-01T07:39:06;1.00;99.90
18888;DHT22;9576;47.792;9.628;2023-03-01T07:42:09;1.10;99.90
18888;DHT22;9576;47.792;9.628;2023-03-01T07:45:11;1.10;99.90
18888;DHT22;9576;47.792;9.628;2023-03-01T07:48:13;1.20;99.90
18888;DHT22;9576;47.792;9.628;2023-03-01T07:51:17;1.20;99.90
18888;DHT22;9576;47.792;9.628;2023-03-01T07:54:19;1.20;99.90
18888;DHT22;9576;47.792;9.628;2023-03-01T07:57:20;1.30;99.90
18888;DHT22;9576;47.792;9.628;2023-03-01T08:00:23;1.30;99.90
18888;DHT22;9576;47.792;9.628;2023-03-01T08:03:25;1.20;99.90
18888;DHT22;9576;47.792;9.628;2023-03-01T08:06:28;1.30;99.90
18888;DHT22;9576;47.792;9.628;2023-03-01T08:09:30;1.40;99.90
18888;DHT22;9576;47.792;9.628;2023-03-01T08:12:32;1.40;99.90
18888;DHT22;9576;47.792;9.628;2023-03-01T08:15:34;1.40;99.90
18888;DHT22;9576;47.792;9.628;2023-03-01T08:18:36;1.40;99.90
18888;DHT22;9576;47.792;9.628;2023-03-01T08:21:40;1.30;99.90
18888;DHT22;9576;47.792;9.628;2023-03-01T08:24:42;1.20;99.90
18888;DHT22;9576;47.792;9.628;2023-03-01T08:27:44;1.20;99.90
18888;DHT22;9576;47.792;9.628;2023-03-01T08:30:45;1.10;99.90
18888;DHT22;9576;47.792;9.628;2023-03-01T08:33:49;1.00;99.90
18888;DHT22;9576;47.792;9.628;2023-03-01T08:36:57;1.00;99.90
18888;DHT22;9576;47.792;9.628;2023-03-01T08:39:59;1.00;99.90
18888;DHT22;9576;47.792;9.628;2023-03-01T08:43:01;1.00;99.90
18888;DHT22;9576;47.792;9.628;2023-03-01T08:46:04;1.10;99.90
18888;DHT22;9576;47.792;9.628;2023-03-01T08:49:08;1.20;99.90
18888;DHT22;9576;47.792;9.628;2023-03-01T08:52:11;1.10;99.90
18888;DHT22;9576;47.792;9.628;2023-03-01T08:55:13;1.20;99.90
18888;DHT22;9576;47.792;9.628;2023-03-01T08:58:16;1.20;99.90
18888;DHT22;9576;47.792;9.628;2023-03-01T09:01:19;1.20;99.90
18888;DHT22;9576;47.792;9.628;2023-03-01T09:04:21;1.20;99.90
18888;DHT22;9576;47.792;9.628;2023-03-01T09:07:25;1.30;99.90
18888;DHT22;9576;47.792;9.628;2023-03-01T09:10:28;1.30;99.90
18888;DHT22;9576;47.792;9.628;2023-03-01T09:13:30;1.30;99.90
18888;DHT22;9576;47.792;9.628;2023-03-01T09:16:32;1.30;99.90
18888;DHT22;9576;47.792;9.628;2023-03-01T09:19:36;1.40;99.90
18888;DHT22;9576;47.792;9.628;2023-03-01T09:22:39;1.40;99.90
18888;DHT22;9576;47.792;9.628;2023-03-01T09:25:41;1.50;99.90
18888;DHT22;9576;47.792;9.628;2023-03-01T09:28:43;1.50;99.90
18888;DHT22;9576;47.792;9.628;2023-03-01T09:31:45;1.50;99.90
18888;DHT22;9576;47.792;9.628;2023-03-01T09:34:47;1.50;99.90
18888;DHT22;9576;47.792;9.628;2023-03-01T09:38:09;1.40;99.90
18888;DHT22;9576;47.792;9.628;2023-03-01T09:41:24;1.50;99.90
18888;DHT22;9576;47.792;9.628;2023-03-01T09:44:32;1.50;99.90
18888;DHT22;9576;47.792;9.628;2023-03-01T09:47:36;1.50;99.90
18888;DHT22;9576;47.792;9.628;2023-03-01T09:50:40;1.50;99.90
18888;DHT22;9576;47.792;9.628;2023-03-01T09:53:44;1.50;99.90
18888;DHT22;9576;47.792;9.628;2023-03-01T09:56:56;1.40;99.90
18888;DHT22;9576;47.792;9.628;2023-03-01T10:00:12;1.40;99.90
18888;DHT22;9576;47.792;9.628;2023-03-01T10:03:19;1.40;99.90
18888;DHT22;9576;47.792;9.628;2023-03-01T10:06:24;1.40;99.90
18888;DHT22;9576;47.792;9.628;2023-03-01T10:09:29;1.50;99.90
18888;DHT22;9576;47.792;9.628;2023-03-01T10:12:37;1.50;99.90
18888;DHT22;9576;47.792;9.628;2023-03-01T10:15:47;1.60;99.90
18888;DHT22;9576;47.792;9.628;2023-03-01T10:18:53;1.60;99.90
18888;DHT22;9576;47.792;9.628;2023-03-01T10:22:00;1.70;99.90
18888;DHT22;9576;47.792;9.628;2023-03-01T10:25:05;1.80;99.90
18888;DHT22;9576;47.792;9.628;2023-03-01T10:28:15;1.80;99.90
18888;DHT22;9576;47.792;9.628;2023-03-01T10:31:20;1.90;99.90
18888;DHT22;9576;47.792;9.628;2023-03-01T10:34:28;1.80;99.90
18888;DHT22;9576;47.792;9.628;2023-03-01T10:37:30;1.80;99.90
18888;DHT22;9576;47.792;9.628;2023-03-01T10:40:34;2.00;99.90
18888;DHT22;9576;47.792;9.628;2023-03-01T10:43:44;1.90;99.90
18888;DHT22;9576;47.792;9.628;2023-03-01T10:46:59;1.80;99.90
18888;DHT22;9576;47.792;9.628;2023-03-01T10:50:04;1.80;99.90
18888;DHT22;9576;47.792;9.628;2023-03-01T10:53:20;1.80;99.90
18888;DHT22;9576;47.792;9.628;2023-03-01T10:56:26;1.80;99.90
18888;DHT22;9576;47.792;9.628;2023-03-01T10:59:30;1.80;99.90
18888;DHT22;9576;47.792;9.628;2023-03-01T11:02:32;1.80;99.90
18888;DHT22;9576;47.792;9.628;2023-03-01T11:05:34;1.90;99.90
18888;DHT22;9576;47.792;9.628;2023-03-01T11:08:41;2.00;99.90
18888;DHT22;9576;47.792;9.628;2023-03-01T11:11:45;2.00;99.90
18888;DHT22;9576;47.792;9.628;2023-03-01T11:14:48;2.00;99.90
18888;DHT22;9576;47.792;9.628;2023-03-01T11:17:51;2.00;99.90
18888;DHT22;9576;47.792;9.628;2023-03-01T11:20:55;2.00;99.90
18888;DHT22;9576;47.792;9.628;2023-03-01T11:23:59;1.90;99.90
18888;DHT22;9576;47.792;9.628;2023-03-01T11:27:06;1.80;99.90
18888;DHT22;9576;47.792;9.628;2023-03-01T11:30:18;1.80;99.90
18888;DHT22;9576;47.792;9.628;2023-03-01T11:33:33;1.90;99.90
18888;DHT22;9576;47.792;9.628;2023-03-01T11:36:40;1.90;99.90
18888;DHT22;9576;47.792;9.628;2023-03-01T11:39:49;1.90;99.90
18888;DHT22;9576;47.792;9.628;2023-03-01T11:43:05;2.00;99.90
18888;DHT22;9576;47.792;9.628;2023-03-01T11:46:35;2.10;99.90
18888;DHT22;9576;47.792;9.628;2023-03-01T11:50:02;2.10;99.90
18888;DHT22;9576;47.792;9.628;2023-03-01T11:53:25;2.20;99.90
18888;DHT22;9576;47.792;9.628;2023-03-01T11:56:36;2.20;99.90
18888;DHT22;9576;47.792;9.628;2023-03-01T12:00:00;2.30;99.90
18888;DHT22;9576;47.792;9.628;2023-03-01T12:03:23;2.40;99.90
18888;DHT22;9576;47.792;9.628;2023-03-01T12:06:42;2.40;99.90
18888;DHT22;9576;47.792;9.628;2023-03-01T12:10:03;2.50;99.90
18888;DHT22;9576;47.792;9.628;2023-03-01T12:16:54;2.40;99.90
18888;DHT22;9576;47.792;9.628;2023-03-01T12:20:11;2.30;99.90
18888;DHT22;9576;47.792;9.628;2023-03-01T12:23:34;2.40;99.90
18888;DHT22;9576;47.792;9.628;2023-03-01T12:26:46;2.40;99.90
18888;DHT22;9576;47.792;9.628;2023-03-01T12:29:53;2.40;99.90
18888;DHT22;9576;47.792;9.628;2023-03-01T12:33:12;2.40;99.90
18888;DHT22;9576;47.792;9.628;2023-03-01T12:36:32;2.50;99.90
18888;DHT22;9576;47.792;9.628;2023-03-01T12:39:45;2.60;99.90
18888;DHT22;9576;47.792;9.628;2023-03-01T12:42:59;2.70;99.90
18888;DHT22;9576;47.792;9.628;2023-03-01T12:46:14;2.80;99.90
18888;DHT22;9576;47.792;9.628;2023-03-01T12:49:23;2.80;99.90
18888;DHT22;9576;47.792;9.628;2023-03-01T12:52:35;2.70;99.90
18888;DHT22;9576;47.792;9.628;2023-03-01T12:55:41;2.70;99.90
18888;DHT22;9576;47.792;9.628;2023-03-01T12:58:52;2.80;99.90
18888;DHT22;9576;47.792;9.628;2023-03-01T13:02:03;2.70;99.90
18888;DHT22;9576;47.792;9.628;2023-03-01T13:05:19;2.70;99.90
18888;DHT22;9576;47.792;9.628;2023-03-01T13:08:31;2.70;99.90
18888;DHT22;9576;47.792;9.628;2023-03-01T13:11:34;2.80;99.90
18888;DHT22;9576;47.792;9.628;2023-03-01T13:14:46;2.80;99.90
18888;DHT22;9576;47.792;9.628;2023-03-01T13:17:49;2.80;99.90
18888;DHT22;9576;47.792;9.628;2023-03-01T13:20:54;2.80;99.90
18888;DHT22;9576;47.792;9.628;2023-03-01T13:23:57;2.80;99.90
18888;DHT22;9576;47.792;9.628;2023-03-01T13:27:22;2.80;99.90
18888;DHT22;9576;47.792;9.628;2023-03-01T13:30:40;2.90;99.90
18888;DHT22;9576;47.792;9.628;2023-03-01T13:33:44;3.00;99.90
18888;DHT22;9576;47.792;9.628;2023-03-01T13:36:48;3.10;99.90
18888;DHT22;9576;47.792;9.628;2023-03-01T13:39:50;3.00;99.90
18888;DHT22;9576;47.792;9.628;2023-03-01T13:42:53;3.00;99.90
18888;DHT22;9576;47.792;9.628;2023-03-01T13:45:55;3.00;99.90
18888;DHT22;9576;47.792;9.628;2023-03-01T13:48:57;3.10;99.90
18888;DHT22;9576;47.792;9.628;2023-03-01T13:52:01;3.10;99.90
18888;DHT22;9576;47.792;9.628;2023-03-01T13:55:03;3.00;99.90
18888;DHT22;9576;47.792;9.628;2023-03-01T13:58:16;3.00;99.90
18888;DHT22;9576;47.792;9.628;2023-03-01T14:01:25;3.10;99.90
18888;DHT22;9576;47.792;9.628;2023-03-01T14:04:29;3.20;99.90
18888;DHT22;9576;47.792;9.628;2023-03-01T14:07:33;3.20;99.90
18888;DHT22;9576;47.792;9.628;2023-03-01T14:10:44;3.30;99.90
18888;DHT22;9576;47.792;9.628;2023-03-01T14:14:27;3.20;99.90
18888;DHT22;9576;47.792;9.628;2023-03-01T14:17:53;3.20;99.90
18888;DHT22;9576;47.792;9.628;2023-03-01T14:20:57;3.20;99.90
18888;DHT22;9576;47.792;9.628;2023-03-01T14:24:00;3.20;99.90
18888;DHT22;9576;47.792;9.628;2023-03-01T14:27:02;3.10;99.90
18888;DHT22;9576;47.792;9.628;2023-03-01T14:30:12;3.00;99.90
18888;DHT22;9576;47.792;9.628;2023-03-01T14:33:20;3.00;99.90
18888;DHT22;9576;47.792;9.628;2023-03-01T14:36:26;2.90;99.90
18888;DHT22;9576;47.792;9.628;2023-03-01T14:39:32;2.70;99.90
18888;DHT22;9576;47.792;9.628;2023-03-01T14:42:35;2.70;99.90
18888;DHT22;9576;47.792;9.628;2023-03-01T14:45:37;2.60;99.90
18888;DHT22;9576;47.792;9.628;2023-03-01T14:48:39;2.60;99.90
18888;DHT22;9576;47.792;9.628;2023-03-01T14:51:43;2.70;99.90
18888;DHT22;9576;47.792;9.628;2023-03-01T14:54:50;2.80;99.90
18888;DHT22;9576;47.792;9.628;2023-03-01T14:57:53;2.90;99.90
18888;DHT22;9576;47.792;9.628;2023-03-01T15:00:57;2.90;99.90
18888;DHT22;9576;47.792;9.628;2023-03-01T15:04:00;2.80;99.90
18888;DHT22;9576;47.792;9.628;2023-03-01T15:07:03;2.80;99.90
18888;DHT22;9576;47.792;9.628;2023-03-01T15:10:19;2.60;99.90
18888;DHT22;9576;47.792;9.628;2023-03-01T15:13:23;2.70;99.90
18888;DHT22;9576;47.792;9.628;2023-03-01T15:16:26;2.80;99.90
18888;DHT22;9576;47.792;9.628;2023-03-01T15:19:29;2.80;99.90
18888;DHT22;9576;47.792;9.628;2023-03-01T15:22:31;3.00;99.90
18888;DHT22;9576;47.792;9.628;2023-03-01T15:25:34;3.70;99.90
18888;DHT22;9576;47.792;9.628;2023-03-01T15:28:42;4.30;99.90
18888;DHT22;9576;47.792;9.628;2023-03-01T15:31:56;4.50;99.90
18888;DHT22;9576;47.792;9.628;2023-03-01T15:34:58;4.70;99.90
18888;DHT22;9576;47.792;9.628;2023-03-01T15:38:01;4.90;99.90
18888;DHT22;9576;47.792;9.628;2023-03-01T15:41:21;5.30;99.90
18888;DHT22;9576;47.792;9.628;2023-03-01T15:44:26;5.50;99.90
18888;DHT22;9576;47.792;9.628;2023-03-01T15:47:30;5.50;99.90
18888;DHT22;9576;47.792;9.628;2023-03-01T15:50:34;5.40;99.90
18888;DHT22;9576;47.792;9.628;2023-03-01T15:53:40;5.20;99.90
18888;DHT22;9576;47.792;9.628;2023-03-01T15:56:43;5.30;99.90
18888;DHT22;9576;47.792;9.628;2023-03-01T15:59:46;5.30;99.90
18888;DHT22;9576;47.792;9.628;2023-03-01T16:02:48;5.30;99.90
18888;DHT22;9576;47.792;9.628;2023-03-01T16:05:51;5.40;99.90
18888;DHT22;9576;47.792;9.628;2023-03-01T16:08:55;5.40;99.90
18888;DHT22;9576;47.792;9.628;2023-03-01T16:11:58;5.30;99.90
18888;DHT22;9576;47.792;9.628;2023-03-01T16:15:00;5.10;99.90
18888;DHT22;9576;47.792;9.628;2023-03-01T16:18:03;4.80;99.90
18888;DHT22;9576;47.792;9.628;2023-03-01T16:21:05;4.70;99.90
18888;DHT22;9576;47.792;9.628;2023-03-01T16:24:08;4.50;99.90
18888;DHT22;9576;47.792;9.628;2023-03-01T16:27:11;4.20;99.90
18888;DHT22;9576;47.792;9.628;2023-03-01T16:30:15;4.10;99.90
18888;DHT22;9576;47.792;9.628;2023-03-01T16:33:17;4.00;99.90
18888;DHT22;9576;47.792;9.628;2023-03-01T16:36:21;3.80;99.90
18888;DHT22;9576;47.792;9.628;2023-03-01T16:39:23;3.40;99.90
18888;DHT22;9576;47.792;9.628;2023-03-01T16:42:27;3.30;99.90
18888;DHT22;9576;47.792;9.628;2023-03-01T16:45:34;3.10;99.90
18888;DHT22;9576;47.792;9.628;2023-03-01T16:48:37;2.90;99.90
18888;DHT22;9576;47.792;9.628;2023-03-01T16:51:38;2.90;99.90
18888;DHT22;9576;47.792;9.628;2023-03-01T16:54:40;2.90;99.90
18888;DHT22;9576;47.792;9.628;2023-03-01T16:57:44;2.90;99.90
18888;DHT22;9576;47.792;9.628;2023-03-01T17:00:45;2.90;99.90
18888;DHT22;9576;47.792;9.628;2023-03-01T17:03:49;2.80;99.90
18888;DHT22;9576;47.792;9.628;2023-03-01T17:06:51;2.90;99.90
18888;DHT22;9576;47.792;9.628;2023-03-01T17:09:53;2.80;99.90
18888;DHT22;9576;47.792;9.628;2023-03-01T17:12:57;2.90;99.90
18888;DHT22;9576;47.792;9.628;2023-03-01T17:15:58;2.90;99.90
18888;DHT22;9576;47.792;9.628;2023-03-01T17:19:01;2.90;99.90
18888;DHT22;9576;47.792;9.628;2023-03-01T17:22:03;2.80;99.90
18888;DHT22;9576;47.792;9.628;2023-03-01T17:25:07;2.80;99.90
18888;DHT22;9576;47.792;9.628;2023-03-01T17:28:11;2.80;99.90
18888;DHT22;9576;47.792;9.628;2023-03-01T17:31:13;2.80;99.90
18888;DHT22;9576;47.792;9.628;2023-03-01T17:34:15;2.90;99.90
18888;DHT22;9576;47.792;9.628;2023-03-01T17:37:17;2.90;99.90
18888;DHT22;9576;47.792;9.628;2023-03-01T17:40:19;2.90;99.90
18888;DHT22;9576;47.792;9.628;2023-03-01T17:43:22;2.90;99.90
18888;DHT22;9576;47.792;9.628;2023-03-01T17:46:24;2.80;99.90
18888;DHT22;9576;47.792;9.628;2023-03-01T17:49:26;2.80;99.90
18888;DHT22;9576;47.792;9.628;2023-03-01T17:52:28;2.80;99.90
18888;DHT22;9576;47.792;9.628;2023-03-01T17:55:30;2.80;99.90
18888;DHT22;9576;47.792;9.628;2023-03-01T17:58:34;2.70;99.90
18888;DHT22;9576;47.792;9.628;2023-03-01T18:01:36;2.70;99.90
18888;DHT22;9576;47.792;9.628;2023-03-01T18:04:38;2.70;99.90
18888;DHT22;9576;47.792;9.628;2023-03-01T18:07:40;2.60;99.90
18888;DHT22;9576;47.792;9.628;2023-03-01T18:10:42;2.70;99.90
18888;DHT22;9576;47.792;9.628;2023-03-01T18:13:45;2.80;99.90
18888;DHT22;9576;47.792;9.628;2023-03-01T18:16:48;2.70;99.90
18888;DHT22;9576;47.792;9.628;2023-03-01T18:19:50;2.70;99.90
18888;DHT22;9576;47.792;9.628;2023-03-01T18:22:52;2.70;99.90
18888;DHT22;9576;47.792;9.628;2023-03-01T18:25:57;2.80;99.90
18888;DHT22;9576;47.792;9.628;2023-03-01T18:29:01;2.80;99.90
18888;DHT22;9576;47.792;9.628;2023-03-01T18:32:04;2.80;99.90
18888;DHT22;9576;47.792;9.628;2023-03-01T18:35:07;2.80;99.90
18888;DHT22;9576;47.792;9.628;2023-03-01T18:38:09;2.80;99.90
18888;DHT22;9576;47.792;9.628;2023-03-01T18:41:11;2.80;99.90
18888;DHT22;9576;47.792;9.628;2023-03-01T18:44:14;2.80;99.90
18888;DHT22;9576;47.792;9.628;2023-03-01T18:47:16;2.80;99.90
18888;DHT22;9576;47.792;9.628;2023-03-01T18:50:18;2.80;99.90
18888;DHT22;9576;47.792;9.628;2023-03-01T18:53:20;2.80;99.90
18888;DHT22;9576;47.792;9.628;2023-03-01T18:56:22;2.80;99.90
18888;DHT22;9576;47.792;9.628;2023-03-01T18:59:25;2.70;99.90
18888;DHT22;9576;47.792;9.628;2023-03-01T19:02:29;2.80;99.90
18888;DHT22;9576;47.792;9.628;2023-03-01T19:05:31;2.70;99.90
18888;DHT22;9576;47.792;9.628;2023-03-01T19:08:33;2.60;99.90
18888;DHT22;9576;47.792;9.628;2023-03-01T19:11:35;2.60;99.90
18888;DHT22;9576;47.792;9.628;2023-03-01T19:14:38;2.70;99.90
18888;DHT22;9576;47.792;9.628;2023-03-01T19:17:40;2.70;99.90
18888;DHT22;9576;47.792;9.628;2023-03-01T19:20:42;2.70;99.90
18888;DHT22;9576;47.792;9.628;2023-03-01T19:23:45;2.70;99.90
18888;DHT22;9576;47.792;9.628;2023-03-01T19:26:48;2.70;99.90
18888;DHT22;9576;47.792;9.628;2023-03-01T19:29:51;2.70;99.90
18888;DHT22;9576;47.792;9.628;2023-03-01T19:32:53;2.70;99.90
18888;DHT22;9576;47.792;9.628;2023-03-01T19:35:55;2.80;99.90
18888;DHT22;9576;47.792;9.628;2023-03-01T19:38:57;2.70;99.90
18888;DHT22;9576;47.792;9.628;2023-03-01T19:41:59;2.70;99.90
18888;DHT22;9576;47.792;9.628;2023-03-01T19:45:03;2.70;99.90
18888;DHT22;9576;47.792;9.628;2023-03-01T19:48:05;2.70;99.90
18888;DHT22;9576;47.792;9.628;2023-03-01T19:51:07;2.70;99.90
18888;DHT22;9576;47.792;9.628;2023-03-01T19:54:10;2.70;99.90
18888;DHT22;9576;47.792;9.628;2023-03-01T19:57:14;2.60;99.90
18888;DHT22;9576;47.792;9.628;2023-03-01T20:00:18;2.70;99.90
18888;DHT22;9576;47.792;9.628;2023-03-01T20:03:20;2.70;99.90
18888;DHT22;9576;47.792;9.628;2023-03-01T20:06:22;2.70;99.90